createdAt,value
2018-10-04T00:00:24.644Z,77.50
2018-10-04T00:02:28.184Z,77.20
2018-10-04T00:04:31.720Z,76.80
2018-10-04T00:06:35.265Z,76.90
2018-10-04T00:08:38.855Z,76.80
2018-10-04T00:10:42.405Z,76.80
2018-10-04T00:12:46.040Z,76.70
2018-10-04T00:14:49.556Z,76.80
2018-10-04T00:16:53.071Z,76.80
2018-10-04T00:18:56.632Z,76.70
2018-10-04T00:21:00.263Z,76.60
2018-10-04T00:23:03.836Z,77.20
2018-10-04T00:25:07.452Z,76.50
2018-10-04T00:27:11.161Z,76.30
2018-10-04T00:29:14.693Z,76.40
2018-10-04T00:31:18.451Z,76.90
2018-10-04T00:33:22.132Z,77.00
2018-10-04T00:35:25.763Z,77.40
2018-10-04T00:37:29.328Z,77.50
2018-10-04T00:39:32.860Z,78.30
2018-10-04T00:41:36.464Z,77.70
2018-10-04T00:43:40.016Z,77.20
2018-10-04T00:45:43.689Z,77.50
2018-10-04T00:47:47.216Z,78.00
2018-10-04T00:49:50.762Z,77.90
2018-10-04T00:51:54.296Z,77.70
2018-10-04T00:53:57.997Z,77.80
2018-10-04T00:56:01.529Z,78.10
2018-10-04T00:58:05.247Z,77.80
2018-10-04T01:00:08.815Z,77.70
2018-10-04T01:02:12.663Z,77.60
2018-10-04T01:04:16.388Z,78.10
2018-10-04T01:06:19.891Z,78.00
2018-10-04T01:08:23.516Z,77.70
2018-10-04T01:10:27.193Z,77.30
2018-10-04T01:12:30.932Z,77.50
2018-10-04T01:14:34.518Z,77.20
2018-10-04T01:16:38.954Z,78.30
2018-10-04T01:18:50.723Z,78.40
2018-10-04T01:20:54.254Z,78.20
2018-10-04T01:22:57.858Z,78.20
2018-10-04T01:25:01.474Z,78.10
2018-10-04T01:27:05.131Z,77.70
2018-10-04T01:29:08.628Z,78.00
2018-10-04T01:31:12.153Z,77.90
2018-10-04T01:33:16.579Z,78.10
2018-10-04T01:35:20.276Z,77.80
2018-10-04T01:37:23.868Z,77.00
2018-10-04T01:39:27.557Z,76.50
2018-10-04T01:41:31.141Z,76.80
2018-10-04T01:43:34.664Z,76.80
2018-10-04T01:45:38.371Z,76.80
2018-10-04T01:47:41.943Z,76.80
2018-10-04T01:49:45.508Z,76.70
2018-10-04T01:51:49.070Z,76.80
2018-10-04T01:53:52.722Z,77.30
2018-10-04T01:55:56.362Z,77.80
2018-10-04T01:57:59.861Z,78.30
2018-10-04T02:00:03.419Z,77.30
2018-10-04T02:02:07.193Z,77.50
2018-10-04T02:04:10.823Z,77.50
2018-10-04T02:06:14.364Z,76.90
2018-10-04T02:08:17.919Z,77.30
2018-10-04T02:10:21.555Z,79.40
2018-10-04T02:12:25.225Z,79.80
2018-10-04T02:14:28.734Z,80.90
2018-10-04T02:16:32.270Z,80.60
2018-10-04T02:18:35.815Z,81.20
2018-10-04T02:20:39.376Z,82.10
2018-10-04T02:22:42.970Z,82.90
2018-10-04T02:24:46.489Z,82.30
2018-10-04T02:26:50.038Z,82.50
2018-10-04T02:28:53.591Z,82.80
2018-10-04T02:30:57.159Z,83.90
2018-10-04T02:33:00.770Z,85.40
2018-10-04T02:35:04.511Z,86.10
2018-10-04T02:37:08.075Z,87.30
2018-10-04T02:39:11.641Z,88.60
2018-10-04T02:41:15.156Z,88.10
2018-10-04T02:43:18.784Z,87.70
2018-10-04T02:45:22.414Z,88.80
2018-10-04T02:47:26.033Z,88.40
2018-10-04T02:49:29.573Z,89.10
2018-10-04T02:51:33.243Z,88.40
2018-10-04T02:53:36.787Z,89.00
2018-10-04T02:55:45.599Z,88.70
2018-10-04T02:57:49.119Z,90.90
2018-10-04T02:59:52.616Z,90.60
2018-10-04T03:01:56.235Z,89.60
2018-10-04T03:03:59.799Z,89.00
2018-10-04T03:06:03.485Z,88.20
2018-10-04T03:08:07.128Z,87.40
2018-10-04T03:10:10.787Z,87.50
2018-10-04T03:12:14.315Z,87.40
2018-10-04T03:14:17.876Z,87.60
2018-10-04T03:16:21.418Z,87.80
2018-10-04T03:18:25.053Z,87.00
2018-10-04T03:20:28.565Z,86.80
2018-10-04T03:22:32.196Z,86.60
2018-10-04T03:24:35.739Z,87.40
2018-10-04T03:26:39.312Z,89.20
2018-10-04T03:28:42.854Z,88.50
2018-10-04T03:30:46.392Z,88.20
2018-10-04T03:32:49.979Z,90.60
2018-10-04T03:34:53.479Z,89.70
2018-10-04T03:36:57.090Z,88.50
2018-10-04T03:39:00.647Z,88.00
2018-10-04T03:41:04.628Z,87.70
2018-10-04T03:43:08.149Z,87.70
2018-10-04T03:45:11.651Z,87.20
2018-10-04T03:47:15.441Z,87.10
2018-10-04T03:49:18.962Z,90.00
2018-10-04T03:51:22.471Z,88.70
2018-10-04T03:53:25.984Z,89.00
2018-10-04T03:55:29.564Z,89.50
2018-10-04T03:57:33.137Z,88.60
2018-10-04T03:59:36.680Z,87.30
2018-10-04T04:01:40.226Z,87.70
2018-10-04T04:03:43.764Z,86.70
2018-10-04T04:05:47.279Z,85.40
2018-10-04T04:07:50.836Z,86.40
2018-10-04T04:09:54.396Z,87.00
2018-10-04T04:11:57.993Z,89.40
2018-10-04T04:14:01.703Z,89.90
2018-10-04T04:16:05.400Z,87.90
2018-10-04T04:18:09.047Z,86.90
2018-10-04T04:20:12.599Z,87.60
2018-10-04T04:22:16.134Z,87.50
2018-10-04T04:24:19.680Z,87.40
2018-10-04T04:26:23.273Z,86.20
2018-10-04T04:28:29.733Z,85.00
2018-10-04T04:30:33.438Z,85.10
2018-10-04T04:32:37.020Z,85.30
2018-10-04T04:34:40.545Z,84.90
2018-10-04T04:36:44.112Z,85.00
2018-10-04T04:38:48.115Z,84.60
2018-10-04T04:40:51.668Z,85.20
2018-10-04T04:42:55.243Z,85.00
2018-10-04T04:44:58.843Z,88.50
2018-10-04T04:47:02.351Z,88.70
2018-10-04T04:49:06.043Z,87.90
2018-10-04T04:51:09.661Z,89.30
2018-10-04T04:53:32.257Z,90.10
2018-10-04T04:55:36.772Z,89.70
2018-10-04T04:57:40.336Z,89.10
2018-10-04T04:59:44.006Z,88.70
2018-10-04T05:01:47.547Z,88.00
2018-10-04T05:03:51.030Z,87.80
2018-10-04T05:05:54.578Z,86.10
2018-10-04T05:07:59.291Z,85.10
2018-10-04T05:10:03.199Z,84.10
2018-10-04T05:12:06.756Z,83.50
2018-10-04T05:14:10.344Z,84.00
2018-10-04T05:16:13.846Z,85.00
2018-10-04T05:18:17.359Z,84.40
2018-10-04T05:20:20.927Z,85.70
2018-10-04T05:22:24.682Z,86.70
2018-10-04T05:24:28.123Z,86.30
2018-10-04T05:26:31.795Z,85.90
2018-10-04T05:28:35.335Z,84.60
2018-10-04T05:30:38.880Z,83.70
2018-10-04T05:32:42.385Z,82.10
2018-10-04T05:34:46.133Z,80.90
2018-10-04T05:36:49.784Z,81.10
2018-10-04T05:38:53.336Z,85.20
2018-10-04T05:40:56.859Z,86.00
2018-10-04T05:43:00.391Z,86.10
2018-10-04T05:45:04.388Z,85.00
2018-10-04T05:47:07.893Z,86.80
2018-10-04T05:49:11.624Z,86.90
2018-10-04T05:51:15.235Z,86.40
2018-10-04T05:53:18.839Z,86.80
2018-10-04T05:55:22.341Z,85.30
2018-10-04T05:57:25.909Z,85.70
2018-10-04T05:59:29.556Z,88.10
2018-10-04T06:01:33.025Z,88.20
2018-10-04T06:03:36.595Z,88.90
2018-10-04T06:05:40.335Z,88.10
2018-10-04T06:07:43.861Z,87.30
2018-10-04T06:09:47.351Z,86.80
2018-10-04T06:11:50.892Z,86.80
2018-10-04T06:13:54.503Z,86.20
2018-10-04T06:15:58.018Z,86.00
2018-10-04T06:18:01.591Z,83.90
2018-10-04T06:20:05.199Z,83.00
2018-10-04T06:22:08.688Z,82.60
2018-10-04T06:24:12.283Z,82.80
2018-10-04T06:26:15.807Z,82.50
2018-10-04T06:28:19.279Z,82.60
2018-10-04T06:30:22.821Z,82.40
2018-10-04T06:32:26.334Z,82.60
2018-10-04T06:34:29.868Z,82.60
2018-10-04T06:36:33.545Z,82.80
2018-10-04T06:38:37.056Z,82.60
2018-10-04T06:40:40.755Z,82.00
2018-10-04T06:42:44.278Z,81.80
2018-10-04T06:44:47.968Z,82.10
2018-10-04T06:46:51.488Z,82.90
2018-10-04T06:48:55.025Z,83.10
2018-10-04T06:50:58.640Z,83.90
2018-10-04T06:53:02.437Z,83.90
2018-10-04T06:55:06.003Z,83.60
2018-10-04T06:57:09.534Z,83.60
2018-10-04T06:59:13.052Z,82.80
2018-10-04T07:01:16.572Z,82.10
2018-10-04T07:03:20.209Z,81.80
2018-10-04T07:05:23.786Z,81.70
2018-10-04T07:07:27.402Z,81.20
2018-10-04T07:09:31.408Z,81.20
2018-10-04T07:11:34.942Z,81.10
2018-10-04T07:13:39.015Z,82.20
2018-10-04T07:15:42.569Z,83.40
2018-10-04T07:17:46.122Z,82.70
2018-10-04T07:19:49.869Z,81.30
2018-10-04T07:21:53.539Z,80.90
2018-10-04T07:23:57.201Z,80.90
2018-10-04T07:26:00.675Z,81.60
2018-10-04T07:28:04.204Z,80.90
2018-10-04T07:30:07.905Z,81.20
2018-10-04T07:32:11.634Z,81.50
2018-10-04T07:34:15.259Z,82.30
2018-10-04T07:36:18.789Z,81.80
2018-10-04T07:38:22.459Z,81.40
2018-10-04T07:40:26.264Z,81.70
2018-10-04T07:42:29.833Z,81.30
2018-10-04T07:44:33.442Z,81.50
2018-10-04T07:46:37.460Z,81.60
2018-10-04T07:48:41.029Z,81.00
2018-10-04T07:50:44.616Z,81.80
2018-10-04T07:52:48.171Z,83.60
2018-10-04T07:54:51.694Z,84.00
2018-10-04T07:56:55.283Z,83.00
2018-10-04T07:58:58.909Z,82.20
2018-10-04T08:01:02.404Z,82.70
2018-10-04T08:03:06.192Z,82.60
2018-10-04T08:05:09.944Z,83.80
2018-10-04T08:07:13.512Z,84.80
2018-10-04T08:09:17.111Z,85.00
2018-10-04T08:11:23.762Z,86.00
2018-10-04T08:13:27.316Z,85.70
2018-10-04T08:15:31.068Z,84.30
2018-10-04T08:17:34.461Z,82.80
2018-10-04T08:19:38.015Z,81.90
2018-10-04T08:21:41.732Z,81.80
2018-10-04T08:23:45.248Z,81.90
2018-10-04T08:25:48.755Z,81.20
2018-10-04T08:27:52.295Z,80.20
2018-10-04T08:29:56.030Z,80.20
2018-10-04T08:31:59.556Z,80.00
2018-10-04T08:34:03.203Z,79.70
2018-10-04T08:36:06.976Z,79.00
2018-10-04T08:38:10.569Z,79.70
2018-10-04T08:40:14.120Z,78.70
2018-10-04T08:42:17.905Z,79.40
2018-10-04T08:44:21.376Z,79.70
2018-10-04T08:46:24.889Z,79.20
2018-10-04T08:48:28.474Z,79.10
2018-10-04T08:50:32.060Z,78.20
2018-10-04T08:52:40.886Z,78.10
2018-10-04T08:54:44.391Z,78.20
2018-10-04T08:56:48.031Z,77.40
2018-10-04T08:58:51.607Z,78.20
2018-10-04T09:00:55.130Z,78.70
2018-10-04T09:03:01.024Z,80.00
2018-10-04T09:05:04.804Z,79.20
2018-10-04T09:07:08.465Z,79.40
2018-10-04T09:09:11.954Z,79.50
2018-10-04T09:11:15.511Z,81.30
2018-10-04T09:13:19.067Z,80.10
2018-10-04T09:15:22.573Z,79.10
2018-10-04T09:17:26.428Z,79.80
2018-10-04T09:19:30.973Z,79.60
2018-10-04T09:21:34.507Z,79.40
2018-10-04T09:23:38.231Z,78.30
2018-10-04T09:25:41.800Z,77.10
2018-10-04T09:27:45.544Z,75.60
2018-10-04T09:29:54.459Z,75.60
2018-10-04T09:31:57.997Z,75.00
2018-10-04T09:34:01.689Z,74.20
2018-10-04T09:36:05.327Z,74.20
2018-10-04T09:38:08.837Z,74.10
2018-10-04T09:40:12.624Z,73.40
2018-10-04T09:42:16.169Z,72.90
2018-10-04T09:44:26.114Z,73.90
2018-10-04T09:46:29.712Z,73.10
2018-10-04T09:48:33.487Z,73.70
2018-10-04T09:50:36.957Z,74.00
2018-10-04T09:52:41.074Z,74.60
2018-10-04T09:54:50.136Z,74.30
2018-10-04T09:56:53.842Z,73.70
2018-10-04T09:58:58.734Z,73.70
2018-10-04T10:01:07.614Z,74.00
2018-10-04T10:03:11.388Z,74.10
2018-10-04T10:05:15.002Z,74.10
2018-10-04T10:07:18.592Z,74.20
2018-10-04T10:09:22.161Z,74.90
2018-10-04T10:11:25.793Z,75.10
2018-10-04T10:13:29.445Z,74.70
2018-10-04T10:15:33.104Z,74.00
2018-10-04T10:17:36.759Z,73.60
2018-10-04T10:19:40.300Z,74.20
2018-10-04T10:21:43.839Z,75.70
2018-10-04T10:23:47.419Z,73.90
2018-10-04T10:25:51.063Z,73.50
2018-10-04T10:27:54.772Z,73.30
2018-10-04T10:29:58.387Z,72.30
2018-10-04T10:32:01.968Z,71.60
2018-10-04T10:34:05.723Z,71.50
2018-10-04T10:36:09.342Z,71.70
2018-10-04T10:38:12.988Z,71.60
2018-10-04T10:40:16.673Z,72.20
2018-10-04T10:42:20.282Z,72.40
2018-10-04T10:44:23.902Z,72.70
2018-10-04T10:46:27.451Z,73.80
2018-10-04T10:48:30.965Z,73.80
2018-10-04T10:50:34.557Z,73.80
2018-10-04T10:52:38.079Z,72.80
2018-10-04T10:54:48.158Z,72.40
2018-10-04T10:56:51.824Z,72.10
2018-10-04T10:58:55.416Z,71.50
2018-10-04T11:00:58.987Z,72.40
2018-10-04T11:03:02.480Z,73.80
2018-10-04T11:05:06.143Z,72.80
2018-10-04T11:07:10.048Z,70.90
2018-10-04T11:09:13.577Z,70.80
2018-10-04T11:11:17.186Z,70.30
2018-10-04T11:13:20.736Z,69.60
2018-10-04T11:15:24.292Z,68.70
2018-10-04T11:17:27.813Z,68.00
2018-10-04T11:19:31.423Z,68.00
2018-10-04T11:21:35.040Z,67.90
2018-10-04T11:23:38.587Z,68.00
2018-10-04T11:25:42.246Z,68.00
2018-10-04T11:27:45.818Z,67.30
2018-10-04T11:29:49.494Z,67.60
2018-10-04T11:31:52.996Z,67.60
2018-10-04T11:33:56.558Z,67.50
2018-10-04T11:36:00.126Z,67.80
2018-10-04T11:38:03.822Z,67.40
2018-10-04T11:40:07.717Z,68.30
2018-10-04T11:42:11.404Z,68.20
2018-10-04T11:44:18.030Z,67.90
2018-10-04T11:46:21.732Z,67.40
2018-10-04T11:48:27.771Z,67.40
2018-10-04T11:50:31.323Z,66.40
2018-10-04T11:52:35.320Z,65.70
2018-10-04T11:54:38.896Z,66.20
2018-10-04T11:56:42.424Z,64.50
2018-10-04T11:58:46.128Z,62.30
2018-10-04T12:00:49.687Z,61.70
2018-10-04T12:02:54.128Z,61.10
2018-10-04T12:04:57.655Z,59.40
2018-10-04T12:07:01.585Z,60.80
2018-10-04T12:09:06.384Z,61.60
2018-10-04T12:11:09.940Z,61.30
2018-10-04T12:13:13.506Z,61.20
2018-10-04T12:15:17.200Z,60.50
2018-10-04T12:17:21.005Z,60.00
2018-10-04T12:19:24.555Z,60.50
2018-10-04T12:21:28.100Z,61.50
2018-10-04T12:23:31.684Z,61.40
2018-10-04T12:25:35.309Z,61.30
2018-10-04T12:27:38.896Z,62.70
2018-10-04T12:29:42.603Z,61.60
2018-10-04T12:31:46.139Z,60.50
2018-10-04T12:33:49.865Z,61.30
2018-10-04T12:35:53.429Z,60.70
2018-10-04T12:37:57.137Z,59.90
2018-10-04T12:40:00.928Z,59.80
2018-10-04T12:42:04.480Z,61.40
2018-10-04T12:44:08.212Z,62.00
2018-10-04T12:46:11.767Z,58.80
2018-10-04T12:48:15.463Z,59.80
2018-10-04T12:50:19.050Z,60.40
2018-10-04T12:52:22.599Z,59.70
2018-10-04T12:54:33.128Z,60.60
2018-10-04T12:56:36.703Z,60.50
2018-10-04T12:58:40.275Z,60.90
2018-10-04T13:00:43.932Z,60.70
2018-10-04T13:02:47.632Z,60.00
2018-10-04T13:04:51.331Z,60.90
2018-10-04T13:06:54.978Z,61.00
2018-10-04T13:08:58.598Z,61.30
2018-10-04T13:11:02.327Z,62.40
2018-10-04T13:13:05.878Z,62.10
2018-10-04T13:15:09.480Z,62.20
2018-10-04T13:17:13.129Z,61.60
2018-10-04T13:19:16.628Z,61.20
2018-10-04T13:21:20.299Z,62.30
2018-10-04T13:23:23.829Z,62.60
2018-10-04T13:25:27.424Z,61.80
2018-10-04T13:27:30.947Z,62.20
2018-10-04T13:29:34.733Z,62.90
2018-10-04T13:31:38.365Z,62.10
2018-10-04T13:33:42.042Z,62.40
2018-10-04T13:35:45.729Z,61.70
2018-10-04T13:37:49.368Z,61.50
2018-10-04T13:39:52.866Z,61.20
2018-10-04T13:41:56.504Z,60.70
2018-10-04T13:44:00.187Z,60.80
2018-10-04T13:46:04.083Z,60.60
2018-10-04T13:48:07.522Z,60.10
2018-10-04T13:50:11.085Z,59.40
2018-10-04T13:52:14.624Z,60.30
2018-10-04T13:54:18.240Z,60.40
2018-10-04T13:56:21.783Z,59.70
2018-10-04T13:58:25.369Z,59.90
2018-10-04T14:00:29.103Z,60.60
2018-10-04T14:02:32.730Z,59.30
2018-10-04T14:04:36.362Z,59.80
2018-10-04T14:06:39.993Z,59.60
2018-10-04T14:08:43.658Z,59.20
2018-10-04T14:10:47.143Z,59.30
2018-10-04T14:12:50.785Z,58.50
2018-10-04T14:14:54.340Z,58.90
2018-10-04T14:16:57.954Z,59.60
2018-10-04T14:19:01.504Z,59.60
2018-10-04T14:21:05.203Z,60.20
2018-10-04T14:23:08.758Z,59.40
2018-10-04T14:25:12.401Z,59.30
2018-10-04T14:27:15.890Z,59.20
2018-10-04T14:29:19.472Z,59.60
2018-10-04T14:31:22.990Z,59.30
2018-10-04T14:33:26.548Z,59.00
2018-10-04T14:35:30.167Z,59.90
2018-10-04T14:37:33.815Z,59.10
2018-10-04T14:39:37.525Z,58.70
2018-10-04T14:41:41.028Z,59.60
2018-10-04T14:43:44.534Z,58.00
2018-10-04T14:45:48.098Z,59.40
2018-10-04T14:47:51.640Z,57.20
2018-10-04T14:49:55.275Z,56.90
2018-10-04T14:51:58.887Z,55.40
2018-10-04T14:54:02.594Z,55.30
2018-10-04T14:56:06.199Z,54.10
2018-10-04T14:58:09.816Z,54.70
2018-10-04T15:00:13.631Z,55.10
2018-10-04T15:02:17.255Z,54.00
2018-10-04T15:04:20.771Z,53.50
2018-10-04T15:06:24.315Z,52.30
2018-10-04T15:08:27.798Z,53.00
2018-10-04T15:10:31.340Z,52.80
2018-10-04T15:12:34.939Z,52.60
2018-10-04T15:14:38.611Z,53.10
2018-10-04T15:16:42.116Z,53.90
2018-10-04T15:18:45.652Z,54.20
2018-10-04T15:20:49.182Z,54.20
2018-10-04T15:22:52.893Z,54.00
2018-10-04T15:24:56.416Z,53.80
2018-10-04T15:26:59.944Z,54.00
2018-10-04T15:29:03.473Z,53.20
2018-10-04T15:31:07.045Z,53.70
2018-10-04T15:33:10.536Z,53.80
2018-10-04T15:35:14.088Z,54.20
2018-10-04T15:37:17.643Z,54.40
2018-10-04T15:39:21.236Z,55.00
2018-10-04T15:41:24.769Z,55.20
2018-10-04T15:43:28.389Z,55.20
2018-10-04T15:45:31.937Z,55.10
2018-10-04T15:47:35.670Z,55.80
2018-10-04T15:49:39.204Z,56.00
2018-10-04T15:51:42.720Z,55.60
2018-10-04T15:53:46.249Z,56.10
2018-10-04T15:55:49.903Z,56.80
2018-10-04T15:57:53.484Z,57.30
2018-10-04T15:59:57.140Z,57.40
2018-10-04T16:02:00.633Z,57.10
2018-10-04T16:04:04.199Z,57.50
2018-10-04T16:06:08.307Z,57.30
2018-10-04T16:08:11.838Z,57.50
2018-10-04T16:10:15.428Z,57.30
2018-10-04T16:12:19.122Z,57.40
2018-10-04T16:14:22.770Z,57.80
2018-10-04T16:16:26.371Z,58.30
2018-10-04T16:18:30.085Z,58.40
2018-10-04T16:20:33.752Z,58.20
2018-10-04T16:22:37.267Z,58.60
2018-10-04T16:24:40.874Z,58.70
2018-10-04T16:26:44.719Z,58.60
2018-10-04T16:28:48.241Z,58.10
2018-10-04T16:30:51.896Z,58.30
2018-10-04T16:32:55.584Z,58.40
2018-10-04T16:34:59.163Z,58.60
2018-10-04T16:37:02.718Z,58.80
2018-10-04T16:39:08.294Z,59.10
2018-10-04T16:41:11.946Z,59.30
2018-10-04T16:43:15.501Z,59.50
2018-10-04T16:45:19.256Z,60.30
2018-10-04T16:47:22.861Z,59.60
2018-10-04T16:49:26.554Z,60.00
2018-10-04T16:51:30.083Z,59.30
2018-10-04T16:53:33.761Z,60.70
2018-10-04T16:55:37.392Z,60.90
2018-10-04T16:57:41.043Z,61.40
2018-10-04T16:59:44.639Z,61.60
2018-10-04T17:01:48.189Z,61.50
2018-10-04T17:03:52.017Z,61.30
2018-10-04T17:05:55.682Z,61.70
2018-10-04T17:07:59.245Z,62.30
2018-10-04T17:10:03.056Z,63.30
2018-10-04T17:12:06.766Z,64.30
2018-10-04T17:14:10.356Z,64.10
2018-10-04T17:16:13.880Z,64.50
2018-10-04T17:18:17.499Z,64.60
2018-10-04T17:20:21.031Z,65.00
2018-10-04T17:22:24.618Z,65.20
2018-10-04T17:24:28.363Z,65.60
2018-10-04T17:26:31.875Z,65.50
2018-10-04T17:28:35.381Z,65.20
2018-10-04T17:30:39.190Z,65.60
2018-10-04T17:32:42.710Z,65.70
2018-10-04T17:34:52.739Z,65.70
2018-10-04T17:36:56.403Z,65.90
2018-10-04T17:38:59.928Z,67.10
2018-10-04T17:41:03.593Z,66.60
2018-10-04T17:43:07.159Z,66.70
2018-10-04T17:45:10.912Z,66.90
2018-10-04T17:47:14.550Z,67.30
2018-10-04T17:49:18.020Z,67.50
2018-10-04T17:51:21.673Z,67.90
2018-10-04T17:53:25.257Z,68.40
2018-10-04T17:55:28.902Z,68.50
2018-10-04T17:57:35.124Z,68.60
2018-10-04T17:59:38.714Z,68.80
2018-10-04T18:01:42.449Z,69.20
2018-10-04T18:03:46.095Z,69.20
2018-10-04T18:05:49.656Z,69.00
2018-10-04T18:07:53.191Z,68.90
2018-10-04T18:09:56.720Z,69.10
2018-10-04T18:12:00.452Z,69.00
2018-10-04T18:14:04.233Z,68.70
2018-10-04T18:16:08.148Z,68.70
2018-10-04T18:18:11.825Z,69.00
2018-10-04T18:20:15.536Z,69.50
2018-10-04T18:22:19.104Z,69.40
2018-10-04T18:24:22.608Z,70.00
2018-10-04T18:26:26.173Z,70.10
2018-10-04T18:28:29.818Z,70.20
2018-10-04T18:30:33.425Z,70.20
2018-10-04T18:32:37.068Z,70.10
2018-10-04T18:34:40.568Z,70.00
2018-10-04T18:36:44.115Z,69.90
2018-10-04T18:38:47.732Z,69.80
2018-10-04T18:40:51.271Z,69.90
2018-10-04T18:42:54.817Z,70.00
2018-10-04T18:44:58.417Z,70.10
2018-10-04T18:47:02.094Z,70.20
2018-10-04T18:49:05.703Z,70.20
2018-10-04T18:51:09.311Z,70.10
2018-10-04T18:53:12.841Z,70.10
2018-10-04T18:55:16.374Z,70.20
2018-10-04T18:57:19.878Z,70.40
2018-10-04T18:59:23.418Z,70.20
2018-10-04T19:01:26.991Z,70.40
2018-10-04T19:03:30.687Z,70.10
2018-10-04T19:05:34.411Z,70.40
2018-10-04T19:07:37.935Z,70.40
2018-10-04T19:09:41.700Z,70.60
2018-10-04T19:11:45.315Z,71.10
2018-10-04T19:13:48.844Z,70.50
2018-10-04T19:15:52.459Z,70.70
2018-10-04T19:17:56.028Z,71.40
2018-10-04T19:19:59.745Z,71.10
2018-10-04T19:22:03.490Z,71.60
2018-10-04T19:24:07.176Z,70.90
2018-10-04T19:26:10.812Z,71.10
2018-10-04T19:28:14.356Z,70.80
2018-10-04T19:30:18.132Z,70.90
2018-10-04T19:32:21.663Z,71.00
2018-10-04T19:34:31.920Z,70.90
2018-10-04T19:36:35.502Z,71.30
2018-10-04T19:38:39.188Z,71.30
2018-10-04T19:40:42.809Z,71.20
2018-10-04T19:42:46.499Z,71.40
2018-10-04T19:44:50.051Z,71.60
2018-10-04T19:46:53.725Z,72.00
2018-10-04T19:48:57.273Z,71.70
2018-10-04T19:51:00.807Z,71.70
2018-10-04T19:53:04.363Z,71.70
2018-10-04T19:55:08.012Z,71.50
2018-10-04T19:57:11.545Z,71.80
2018-10-04T19:59:15.363Z,71.90
2018-10-04T20:01:19.015Z,71.90
2018-10-04T20:03:22.702Z,72.10
2018-10-04T20:05:26.290Z,71.90
2018-10-04T20:07:29.886Z,72.20
2018-10-04T20:09:33.454Z,72.80
2018-10-04T20:11:37.440Z,72.60
2018-10-04T20:13:40.957Z,72.50
2018-10-04T20:15:44.570Z,72.50
2018-10-04T20:17:48.540Z,72.40
2018-10-04T20:19:52.203Z,72.70
2018-10-04T20:21:55.835Z,72.80
2018-10-04T20:23:59.394Z,72.60
2018-10-04T20:26:03.128Z,72.90
2018-10-04T20:28:06.779Z,73.40
2018-10-04T20:30:10.455Z,73.20
2018-10-04T20:32:14.104Z,72.90
2018-10-04T20:34:17.731Z,72.90
2018-10-04T20:36:21.279Z,73.10
2018-10-04T20:38:25.046Z,73.30
2018-10-04T20:40:28.921Z,72.70
2018-10-04T20:42:32.484Z,72.40
2018-10-04T20:44:36.014Z,72.60
2018-10-04T20:46:39.815Z,72.80
2018-10-04T20:48:43.394Z,72.60
2018-10-04T20:50:46.949Z,72.80
2018-10-04T20:52:50.480Z,72.70
2018-10-04T20:54:54.161Z,72.50
2018-10-04T20:56:57.751Z,72.10
2018-10-04T20:59:01.323Z,71.90
2018-10-04T21:01:05.036Z,72.20
2018-10-04T21:03:08.532Z,71.80
2018-10-04T21:05:12.188Z,71.80
2018-10-04T21:07:15.755Z,72.30
2018-10-04T21:09:19.352Z,73.60
2018-10-04T21:11:22.900Z,72.10
2018-10-04T21:13:26.605Z,71.80
2018-10-04T21:15:30.292Z,71.60
2018-10-04T21:17:33.855Z,72.00
2018-10-04T21:19:37.403Z,72.00
2018-10-04T21:21:41.210Z,72.10
2018-10-04T21:23:45.025Z,72.00
2018-10-04T21:25:48.658Z,71.80
2018-10-04T21:27:52.614Z,71.90
2018-10-04T21:29:56.186Z,72.30
2018-10-04T21:31:59.816Z,72.50
2018-10-04T21:34:03.409Z,72.00
2018-10-04T21:36:07.039Z,71.60
2018-10-04T21:38:10.764Z,71.80
2018-10-04T21:40:14.344Z,71.70
2018-10-04T21:42:17.899Z,71.40
2018-10-04T21:44:21.416Z,71.20
2018-10-04T21:46:25.122Z,71.10
2018-10-04T21:48:28.652Z,71.30
2018-10-04T21:50:32.360Z,71.40
2018-10-04T21:52:35.995Z,71.50
2018-10-04T21:54:39.532Z,71.40
2018-10-04T21:56:43.133Z,71.30
2018-10-04T21:58:46.700Z,71.50
2018-10-04T22:00:55.732Z,71.20
2018-10-04T22:02:59.725Z,71.50
2018-10-04T22:05:03.267Z,71.00
2018-10-04T22:07:07.007Z,71.10
2018-10-04T22:09:11.304Z,71.10
2018-10-04T22:11:14.913Z,71.40
2018-10-04T22:13:18.656Z,71.10
2018-10-04T22:15:22.212Z,71.50
2018-10-04T22:17:25.854Z,71.10
2018-10-04T22:19:29.548Z,71.10
2018-10-04T22:21:33.099Z,71.10
2018-10-04T22:23:36.896Z,70.80
2018-10-04T22:25:40.393Z,70.90
2018-10-04T22:27:43.892Z,70.80
2018-10-04T22:29:47.479Z,71.10
2018-10-04T22:31:50.969Z,71.30
2018-10-04T22:33:54.483Z,71.20
2018-10-04T22:35:58.095Z,71.90
2018-10-04T22:38:01.576Z,72.00
2018-10-04T22:40:05.218Z,71.90
2018-10-04T22:42:08.938Z,72.00
2018-10-04T22:44:12.549Z,71.40
2018-10-04T22:46:16.227Z,72.20
2018-10-04T22:48:19.958Z,72.10
2018-10-04T22:50:23.460Z,72.20
2018-10-04T22:52:27.067Z,71.80
2018-10-04T22:54:30.664Z,71.60
2018-10-04T22:56:34.130Z,71.40
2018-10-04T22:58:37.700Z,71.30
2018-10-04T23:00:41.264Z,71.50
2018-10-04T23:02:45.096Z,72.00
2018-10-04T23:04:48.825Z,71.20
2018-10-04T23:06:52.323Z,71.60
2018-10-04T23:08:55.873Z,71.70
2018-10-04T23:10:59.423Z,71.20
2018-10-04T23:13:03.068Z,71.10
2018-10-04T23:15:06.830Z,70.90
2018-10-04T23:17:11.020Z,71.10
2018-10-04T23:19:14.726Z,71.10
2018-10-04T23:21:18.244Z,70.50
2018-10-04T23:23:21.839Z,70.10
2018-10-04T23:25:25.540Z,70.40
2018-10-04T23:27:29.144Z,70.40
2018-10-04T23:29:32.716Z,70.90
2018-10-04T23:31:36.284Z,70.90
2018-10-04T23:33:40.037Z,70.80
2018-10-04T23:35:43.584Z,71.10
2018-10-04T23:37:47.117Z,71.50
2018-10-04T23:39:50.655Z,71.40
2018-10-04T23:41:54.447Z,71.20
2018-10-04T23:43:58.172Z,71.40
2018-10-04T23:46:02.030Z,71.30
2018-10-04T23:48:05.581Z,71.10
2018-10-04T23:50:09.275Z,70.90
2018-10-04T23:52:13.052Z,70.90
2018-10-04T23:54:16.581Z,71.20
2018-10-04T23:56:20.152Z,71.50
2018-10-04T23:58:27.838Z,71.20
